Time;durP1;ratioP1;P1;durP2;ratioP2;P2;SDS_P1;SDS_P2;PMS_P1;PMS_P2;Temp;Humidity;BMP_temperature;BMP_pressure;BME280_temperature;BME280_humidity;BME280_pressure;Samples;Min_cycle;Max_cycle;Signal;HPM_P1;HPM_P2
2023/02/21 02:15:21;;;;;;;3.57;3.27;;;7.70;93.30;;;;;;10563800;28;20215;-80
2023/02/21 02:26:43;;;;;;;3.30;3.10;;;7.60;93.40;;;;;;10342950;28;20207;-82
2023/02/21 02:32:02;;;;;;;4.20;3.80;;;7.60;93.40;;;;;;10365044;28;20684;-82
2023/02/21 02:37:13;;;;;;;3.47;3.17;;;7.60;93.70;;;;;;10361387;28;20197;-82
2023/02/21 02:42:26;;;;;;;3.20;2.90;;;7.60;93.30;;;;;;10386814;28;20215;-83
2023/02/21 02:47:34;;;;;;;3.80;3.23;;;7.60;93.50;;;;;;10403036;28;20253;-83
2023/02/21 02:52:50;;;;;;;3.20;2.90;;;7.60;93.50;;;;;;10390814;28;20220;-82
2023/02/21 02:57:53;;;;;;;3.87;3.27;;;7.60;93.50;;;;;;10401710;28;20205;-83
2023/02/21 03:03:30;;;;;;;3.40;3.20;;;7.50;93.40;;;;;;10416341;28;20251;-82
2023/02/21 03:08:51;;;;;;;6.70;5.80;;;7.50;93.50;;;;;;10395177;28;20667;-82
2023/02/21 03:13:58;;;;;;;64.40;36.17;;;7.40;93.80;;;;;;10395701;28;20304;-82
2023/02/21 03:19:04;;;;;;;5.80;4.60;;;7.40;93.80;;;;;;10402970;28;20222;-82
2023/02/21 03:24:10;;;;;;;20.17;14.13;;;7.40;93.70;;;;;;10400099;28;20253;-82
2023/02/21 03:29:13;;;;;;;17.20;12.40;;;7.40;93.90;;;;;;10419460;28;20198;-82
2023/02/21 03:34:16;;;;;;;3.80;3.30;;;7.30;93.90;;;;;;10385745;28;20280;-82
2023/02/21 03:39:19;;;;;;;3.80;3.50;;;7.30;93.70;;;;;;10403910;28;20219;-82
2023/02/21 03:44:22;;;;;;;3.67;3.37;;;7.30;94.10;;;;;;10388924;28;20289;-82
2023/02/21 03:49:24;;;;;;;27.50;16.80;;;7.30;93.80;;;;;;10387576;28;20199;-82
2023/02/21 03:54:28;;;;;;;3.80;3.37;;;7.30;93.70;;;;;;10388501;28;20241;-82
2023/02/21 03:59:33;;;;;;;5.30;4.03;;;7.20;93.80;;;;;;10389989;28;20211;-82
2023/02/21 04:04:35;;;;;;;32.13;11.33;;;7.20;93.70;;;;;;10388016;28;20659;-84
2023/02/21 04:09:44;;;;;;;3.57;3.00;;;7.10;94.10;;;;;;10402592;28;20234;-83
2023/02/21 04:14:51;;;;;;;40.13;15.40;;;7.10;94.20;;;;;;10389961;28;20225;-85
2023/02/21 04:19:53;;;;;;;13.07;6.83;;;7.10;94.20;;;;;;10390091;28;20255;-82
2023/02/21 04:24:57;;;;;;;14.13;7.53;;;7.10;94.20;;;;;;10418372;28;20245;-82
2023/02/21 04:30:00;;;;;;;12.80;9.37;;;7.20;94.00;;;;;;10429709;28;20613;-82
2023/02/21 04:35:03;;;;;;;3.23;3.03;;;7.10;94.40;;;;;;10445370;28;20215;-83
2023/02/21 04:40:08;;;;;;;6.13;5.50;;;7.10;94.20;;;;;;10433470;28;20228;-83
2023/02/21 04:45:11;;;;;;;5.23;4.17;;;7.10;94.70;;;;;;10441221;28;20290;-82
2023/02/21 04:50:13;;;;;;;9.90;6.70;;;7.20;93.90;;;;;;10447966;28;20194;-82
2023/02/21 04:55:16;;;;;;;3.33;3.03;;;7.10;94.10;;;;;;10448330;28;20210;-83
2023/02/21 05:00:22;;;;;;;3.17;2.90;;;7.10;94.00;;;;;;10460727;28;20225;-83
2023/02/21 05:05:24;;;;;;;8.20;7.07;;;7.10;94.30;;;;;;10463292;28;20210;-82
2023/02/21 05:10:28;;;;;;;4.63;3.70;;;7.00;94.30;;;;;;10454812;28;20228;-82
2023/02/21 05:15:30;;;;;;;3.00;2.73;;;7.00;94.20;;;;;;10444622;28;20221;-82
2023/02/21 05:20:32;;;;;;;3.40;3.20;;;7.00;93.90;;;;;;10436441;28;20305;-82
2023/02/21 05:25:35;;;;;;;2.67;2.47;;;7.00;94.30;;;;;;10419784;28;20302;-82
2023/02/21 05:30:37;;;;;;;3.57;3.27;;;6.90;94.20;;;;;;10418004;28;20187;-82
2023/02/21 05:35:39;;;;;;;6.20;3.57;;;6.90;94.60;;;;;;10380826;28;20708;-84
2023/02/21 05:40:43;;;;;;;3.97;3.57;;;6.90;94.10;;;;;;10399621;28;20229;-84
2023/02/21 05:45:45;;;;;;;4.40;3.77;;;6.80;94.20;;;;;;10397912;28;20223;-84
2023/02/21 05:50:47;;;;;;;8.00;6.93;;;6.80;94.20;;;;;;10377191;28;20222;-84
2023/02/21 05:55:55;;;;;;;5.03;4.53;;;6.80;94.40;;;;;;10382730;28;20680;-84
2023/02/21 06:00:57;;;;;;;5.87;5.27;;;6.80;94.40;;;;;;10399695;28;20245;-82
2023/02/21 06:06:00;;;;;;;5.37;4.37;;;6.80;94.00;;;;;;10399618;28;20248;-83
2023/02/21 06:11:03;;;;;;;7.30;4.17;;;6.70;94.70;;;;;;10401670;28;20282;-83
2023/02/21 06:16:06;;;;;;;5.47;4.23;;;6.70;94.20;;;;;;10419114;28;20224;-84
2023/02/21 06:21:08;;;;;;;6.23;4.20;;;6.70;94.70;;;;;;10405826;28;20240;-83
2023/02/21 06:26:12;;;;;;;4.90;3.83;;;6.80;94.30;;;;;;10402404;28;20570;-83
2023/02/21 06:31:14;;;;;;;6.03;4.57;;;6.70;94.80;;;;;;10406050;28;20339;-82
2023/02/21 06:36:18;;;;;;;4.87;3.97;;;6.70;94.90;;;;;;10422611;28;20663;-84
2023/02/21 06:41:24;;;;;;;7.40;4.87;;;6.70;94.70;;;;;;10425991;28;20288;-84
2023/02/21 06:46:27;;;;;;;13.00;5.07;;;6.70;94.70;;;;;;10424541;28;20656;-84
2023/02/21 06:51:34;;;;;;;6.37;4.90;;;6.80;94.50;;;;;;10422493;28;20219;-84
2023/02/21 06:56:37;;;;;;;29.17;18.40;;;6.80;94.40;;;;;;10422756;28;20261;-85
2023/02/21 07:01:39;;;;;;;7.53;4.70;;;6.80;94.70;;;;;;10421758;28;20227;-84
2023/02/21 07:06:42;;;;;;;5.40;4.90;;;6.90;94.50;;;;;;10424903;28;20864;-85
2023/02/21 07:11:45;;;;;;;19.93;14.00;;;6.90;94.50;;;;;;10426761;28;20734;-84
2023/02/21 07:16:47;;;;;;;8.27;6.70;;;6.90;94.80;;;;;;10428923;28;20195;-86
2023/02/21 07:21:49;;;;;;;8.33;7.47;;;6.90;95.10;;;;;;10417176;28;20236;-85
2023/02/21 07:26:53;;;;;;;6.00;4.77;;;7.00;95.20;;;;;;10434319;28;20215;-85
2023/02/21 07:31:55;;;;;;;4.37;3.97;;;7.10;94.90;;;;;;10434744;28;20224;-86
2023/02/21 07:36:57;;;;;;;4.83;4.43;;;7.10;94.90;;;;;;10439665;28;20275;-86
2023/02/21 07:42:00;;;;;;;6.30;4.30;;;7.20;94.90;;;;;;10454075;28;20594;-86
2023/02/21 07:47:05;;;;;;;5.13;4.57;;;7.20;94.90;;;;;;10457833;28;20257;-85
2023/02/21 07:52:07;;;;;;;6.10;4.63;;;7.30;94.70;;;;;;10441774;28;20216;-86
2023/02/21 07:57:11;;;;;;;9.10;4.97;;;7.30;94.50;;;;;;10462688;28;20200;-83
2023/02/21 08:02:13;;;;;;;6.50;5.70;;;7.40;94.50;;;;;;10444284;28;20323;-81
2023/02/21 08:07:15;;;;;;;5.50;5.00;;;7.40;94.90;;;;;;10444753;28;20194;-85
2023/02/21 08:12:18;;;;;;;7.13;5.60;;;7.50;95.30;;;;;;10407273;28;20241;-85
2023/02/21 08:17:20;;;;;;;9.00;6.60;;;7.60;95.20;;;;;;10391301;28;20204;-84
2023/02/21 08:22:23;;;;;;;7.70;5.50;;;7.70;95.50;;;;;;10487328;23;20226;-82
2023/02/21 08:27:28;;;;;;;12.20;6.77;;;7.80;95.80;;;;;;10540028;28;20197;-82
2023/02/21 08:32:30;;;;;;;14.07;8.17;;;7.90;95.60;;;;;;10537306;27;20220;-82
2023/02/21 08:37:35;;;;;;;11.47;8.80;;;8.00;95.40;;;;;;10556987;28;20200;-82
2023/02/21 08:42:38;;;;;;;12.43;8.17;;;8.20;95.60;;;;;;10610029;27;20248;-82
2023/02/21 08:47:40;;;;;;;9.20;8.23;;;8.30;95.70;;;;;;10612300;27;20228;-82
2023/02/21 08:52:42;;;;;;;11.00;8.67;;;8.40;95.70;;;;;;10559113;27;20209;-82
2023/02/21 08:57:47;;;;;;;14.30;7.97;;;8.60;95.40;;;;;;10574675;28;20197;-83
2023/02/21 09:02:50;;;;;;;8.73;7.50;;;8.70;95.30;;;;;;10568211;27;20244;-82
2023/02/21 09:07:53;;;;;;;12.20;8.30;;;8.90;95.10;;;;;;10548155;28;20792;-82
2023/02/21 09:12:57;;;;;;;11.20;8.20;;;9.10;95.40;;;;;;10597462;27;20653;-82
2023/02/21 09:17:59;;;;;;;12.70;8.80;;;9.20;94.90;;;;;;10566664;28;20726;-82
2023/02/21 09:23:01;;;;;;;15.97;12.10;;;9.40;95.10;;;;;;10565797;28;20223;-83
2023/02/21 09:28:05;;;;;;;8.13;7.33;;;9.50;95.50;;;;;;10557736;28;20202;-83
2023/02/21 09:33:07;;;;;;;10.57;7.00;;;9.70;95.50;;;;;;10561276;27;20417;-83
2023/02/21 09:38:09;;;;;;;9.63;8.17;;;9.80;95.10;;;;;;10554975;28;20237;-82
2023/02/21 09:43:16;;;;;;;9.60;7.27;;;10.00;94.80;;;;;;10549001;27;20694;-83
2023/02/21 09:48:22;;;;;;;14.13;7.87;;;10.20;95.30;;;;;;10536135;28;20199;-83
2023/02/21 09:53:28;;;;;;;12.23;7.70;;;10.30;95.60;;;;;;10558565;27;20289;-82
2023/02/21 09:58:31;;;;;;;15.77;7.80;;;10.50;95.30;;;;;;10548514;28;20253;-83
2023/02/21 10:03:44;;;;;;;11.37;8.63;;;10.70;95.30;;;;;;10544587;27;20223;-82
2023/02/21 10:08:52;;;;;;;10.70;6.70;;;10.80;94.60;;;;;;10567638;27;20572;-83
2023/02/21 10:14:06;;;;;;;8.93;7.13;;;10.90;94.50;;;;;;10567924;27;20221;-83
2023/02/21 10:19:17;;;;;;;8.00;6.37;;;10.90;95.00;;;;;;10548589;27;20237;-83
2023/02/21 10:24:23;;;;;;;8.10;6.97;;;10.90;93.70;;;;;;10587157;27;20721;-83
2023/02/21 10:29:35;;;;;;;7.63;6.53;;;10.90;94.70;;;;;;10612590;27;20283;-83
2023/02/21 10:34:37;;;;;;;6.63;6.03;;;11.00;95.10;;;;;;10595235;27;20211;-83
2023/02/21 10:39:45;;;;;;;9.00;6.80;;;11.00;94.10;;;;;;10578348;28;20744;-83
2023/02/21 10:44:49;;;;;;;7.17;5.27;;;11.10;94.30;;;;;;10586074;27;20216;-83
2023/02/21 10:50:03;;;;;;;8.20;6.03;;;11.20;92.90;;;;;;10616160;27;20545;-83
2023/02/21 10:55:15;;;;;;;8.90;5.70;;;11.30;92.60;;;;;;10566372;28;20208;-83
2023/02/21 11:00:25;;;;;;;4.83;4.30;;;11.40;91.50;;;;;;10611761;27;20238;-83
2023/02/21 11:05:28;;;;;;;5.57;5.07;;;11.50;92.30;;;;;;10549071;27;20247;-83
2023/02/21 11:10:32;;;;;;;5.70;5.10;;;11.60;92.90;;;;;;10616155;27;20195;-83
2023/02/21 11:15:37;;;;;;;5.97;4.80;;;11.60;92.90;;;;;;10591220;27;20211;-83
2023/02/21 11:20:39;;;;;;;6.50;5.40;;;11.70;92.50;;;;;;10550701;27;20212;-83
2023/02/21 11:25:41;;;;;;;5.70;5.10;;;11.70;92.90;;;;;;10607026;27;20730;-83
2023/02/21 11:30:49;;;;;;;9.37;6.20;;;11.80;92.60;;;;;;10592754;28;20643;-83
2023/02/21 11:35:54;;;;;;;8.60;5.40;;;11.90;92.10;;;;;;10553576;27;20237;-83
2023/02/21 11:40:56;;;;;;;6.60;6.00;;;12.00;91.50;;;;;;10617101;27;20203;-83
2023/02/21 11:46:17;;;;;;;5.43;4.77;;;12.10;92.10;;;;;;10602146;27;20215;-83
2023/02/21 11:51:29;;;;;;;4.87;4.47;;;12.20;91.20;;;;;;10556483;27;20199;-83
2023/02/21 11:56:51;;;;;;;5.23;4.73;;;12.30;91.50;;;;;;10623168;27;20278;-83
2023/02/21 12:02:12;;;;;;;4.43;4.13;;;12.40;90.90;;;;;;10527436;28;20706;-83
2023/02/21 12:07:20;;;;;;;4.03;3.60;;;12.40;91.00;;;;;;10592146;27;20197;-83
2023/02/21 12:12:41;;;;;;;4.13;3.83;;;12.50;91.40;;;;;;10548740;28;20287;-83
2023/02/21 12:18:01;;;;;;;4.27;3.83;;;12.60;90.20;;;;;;10613707;27;20199;-82
2023/02/21 12:23:12;;;;;;;3.90;3.60;;;12.70;89.10;;;;;;10579412;27;20668;-83
2023/02/21 12:28:20;;;;;;;5.57;3.03;;;12.80;90.60;;;;;;10545098;28;20192;-83
2023/02/21 12:33:33;;;;;;;4.23;3.83;;;12.90;89.90;;;;;;10577991;28;20208;-83
2023/02/21 12:38:47;;;;;;;5.40;4.10;;;12.90;91.20;;;;;;10578657;28;20214;-83
2023/02/21 12:44:00;;;;;;;6.70;4.63;;;12.80;91.50;;;;;;10580372;28;20220;-83
2023/02/21 12:49:10;;;;;;;9.27;7.70;;;12.80;92.50;;;;;;10629613;27;20203;-83
2023/02/21 12:54:18;;;;;;;3.63;2.83;;;12.70;92.70;;;;;;10643490;27;20316;-83
2023/02/21 12:59:26;;;;;;;3.50;3.17;;;12.90;88.70;;;;;;10605421;27;20187;-83
2023/02/21 13:04:37;;;;;;;3.17;2.97;;;13.20;88.30;;;;;;10592551;27;20260;-83
2023/02/21 13:09:47;;;;;;;3.03;2.40;;;13.40;87.70;;;;;;10557780;27;20188;-83
2023/02/21 13:14:55;;;;;;;3.60;3.27;;;13.70;86.00;;;;;;10563832;28;20228;-83
2023/02/21 13:20:04;;;;;;;2.70;2.57;;;13.80;85.90;;;;;;10580295;27;20200;-83
2023/02/21 13:25:22;;;;;;;4.13;2.80;;;14.00;85.60;;;;;;10565055;28;20219;-85
2023/02/21 13:30:35;;;;;;;4.00;2.97;;;14.00;87.70;;;;;;10556503;27;20207;-85
2023/02/21 13:35:40;;;;;;;2.90;2.63;;;13.90;88.50;;;;;;10576785;27;20598;-85
2023/02/21 13:40:49;;;;;;;3.00;2.77;;;13.80;89.50;;;;;;10541764;28;20256;-85
2023/02/21 13:45:52;;;;;;;3.70;3.40;;;13.70;88.70;;;;;;10539932;27;20216;-85
2023/02/21 13:50:57;;;;;;;3.50;3.00;;;13.70;86.80;;;;;;10519385;28;20189;-85
2023/02/21 13:56:17;;;;;;;2.70;2.50;;;13.70;88.50;;;;;;10534149;28;20212;-85
2023/02/21 14:01:48;;;;;;;2.90;2.70;;;13.70;86.90;;;;;;10585028;28;20290;-85
2023/02/21 14:06:57;;;;;;;2.63;2.43;;;13.60;90.40;;;;;;10555370;28;20608;-85
2023/02/21 14:12:03;;;;;;;2.97;2.67;;;13.50;90.30;;;;;;10591480;28;20203;-85
2023/02/21 14:17:08;;;;;;;3.30;3.10;;;13.40;91.60;;;;;;10565376;28;20207;-85
2023/02/21 14:22:19;;;;;;;3.13;2.70;;;13.30;91.20;;;;;;10580999;22;20224;-80
2023/02/21 14:27:46;;;;;;;4.83;3.20;;;13.20;92.20;;;;;;10497581;28;20206;-80
2023/02/21 14:32:56;;;;;;;3.43;2.87;;;13.20;92.00;;;;;;10459202;28;20221;-79
2023/02/21 14:38:03;;;;;;;2.93;2.67;;;13.20;90.50;;;;;;10452138;28;20209;-79
2023/02/21 14:43:29;;;;;;;3.40;3.10;;;13.30;90.40;;;;;;10466174;28;20701;-80
2023/02/21 14:48:53;;;;;;;9.57;3.60;;;13.40;91.00;;;;;;10441007;28;20237;-80
2023/02/21 14:54:26;;;;;;;3.10;2.83;;;13.40;89.80;;;;;;10522239;28;20221;-80
2023/02/21 14:59:53;;;;;;;2.90;2.50;;;13.50;90.30;;;;;;10521674;28;20216;-80
2023/02/21 15:05:03;;;;;;;2.60;2.40;;;13.50;90.20;;;;;;10492813;28;20232;-80
2023/02/21 15:10:16;;;;;;;2.63;2.43;;;13.50;89.90;;;;;;10519307;28;20245;-79
2023/02/21 15:15:23;;;;;;;2.43;2.33;;;13.70;88.70;;;;;;10467153;28;20224;-80
2023/02/21 15:20:25;;;;;;;3.90;2.80;;;13.80;88.10;;;;;;10509246;28;20194;-80
2023/02/21 15:25:29;;;;;;;2.90;2.60;;;13.80;89.60;;;;;;10481067;28;20220;-80
2023/02/21 15:30:34;;;;;;;2.70;2.50;;;13.80;90.10;;;;;;10459684;28;20239;-82
2023/02/21 15:35:39;;;;;;;2.73;2.53;;;13.70;91.50;;;;;;10512141;28;20353;-81
2023/02/21 15:40:43;;;;;;;2.43;2.23;;;13.60;90.40;;;;;;10481515;28;20673;-79
2023/02/21 15:45:48;;;;;;;2.90;2.70;;;13.50;92.10;;;;;;10504769;28;20757;-81
2023/02/21 15:50:50;;;;;;;3.10;2.90;;;13.50;92.20;;;;;;10501993;28;20651;-81
2023/02/21 15:55:54;;;;;;;2.57;2.40;;;13.40;92.00;;;;;;10469834;28;20267;-79
2023/02/21 16:01:07;;;;;;;6.73;2.90;;;13.40;90.70;;;;;;10500769;28;20653;-80
2023/02/21 16:06:18;;;;;;;3.07;2.80;;;13.50;91.90;;;;;;10482129;28;20222;-81
2023/02/21 16:11:22;;;;;;;3.90;3.60;;;13.50;92.00;;;;;;10493765;28;20187;-81
2023/02/21 16:16:24;;;;;;;3.63;3.30;;;13.50;92.40;;;;;;10473552;28;20267;-81
2023/02/21 16:21:29;;;;;;;8.33;3.20;;;13.50;92.20;;;;;;10500434;28;20654;-80
2023/02/21 16:26:32;;;;;;;7.27;3.23;;;13.40;91.80;;;;;;10475335;28;20317;-81
2023/02/21 16:31:35;;;;;;;3.70;3.23;;;13.40;91.80;;;;;;10469356;28;20716;-81
2023/02/21 16:36:39;;;;;;;4.33;3.47;;;13.40;91.30;;;;;;10456882;28;20218;-80
2023/02/21 16:41:43;;;;;;;5.57;3.50;;;13.40;91.50;;;;;;10475421;28;20784;-80
2023/02/21 16:46:46;;;;;;;4.33;3.60;;;13.30;91.70;;;;;;10455746;28;20246;-79
2023/02/21 16:51:50;;;;;;;6.13;3.60;;;13.20;91.70;;;;;;10491038;28;20198;-79
2023/02/21 16:56:55;;;;;;;6.27;3.57;;;13.10;91.80;;;;;;10471278;28;20208;-79
2023/02/21 17:01:58;;;;;;;5.30;4.87;;;13.00;91.90;;;;;;10446933;28;20214;-81
2023/02/21 17:07:04;;;;;;;8.83;6.80;;;12.90;92.00;;;;;;10481652;28;20202;-79
2023/02/21 17:12:08;;;;;;;9.73;8.83;;;12.80;92.30;;;;;;10463239;28;20217;-79
2023/02/21 17:17:10;;;;;;;8.20;7.40;;;12.60;92.50;;;;;;10487536;28;20248;-80
2023/02/21 17:22:12;;;;;;;9.40;8.13;;;12.50;92.60;;;;;;10487033;28;20212;-79
2023/02/21 17:27:16;;;;;;;10.50;6.93;;;12.30;92.70;;;;;;10444021;28;20213;-81
2023/02/21 17:32:18;;;;;;;7.63;6.80;;;12.20;92.90;;;;;;10469834;28;20221;-81
2023/02/21 17:37:20;;;;;;;5.10;4.70;;;12.10;93.10;;;;;;10451446;28;20194;-81
2023/02/21 17:42:24;;;;;;;20.40;16.47;;;12.00;93.10;;;;;;10435244;28;20580;-81
2023/02/21 17:47:26;;;;;;;21.27;17.67;;;11.80;93.30;;;;;;10453119;28;20539;-79
2023/02/21 17:52:29;;;;;;;15.53;9.93;;;11.70;93.60;;;;;;10437092;28;20210;-81
2023/02/21 17:57:36;;;;;;;10.40;9.23;;;11.70;93.50;;;;;;10469681;28;20281;-80
2023/02/21 18:02:40;;;;;;;6.17;5.43;;;11.60;93.50;;;;;;10462818;28;20221;-81
2023/02/21 18:07:46;;;;;;;6.40;5.30;;;11.60;93.60;;;;;;10416103;28;20202;-79
2023/02/21 18:12:50;;;;;;;5.60;5.07;;;11.50;93.80;;;;;;10415028;28;20210;-79
2023/02/21 18:17:52;;;;;;;4.47;4.17;;;11.40;94.00;;;;;;10419236;28;20653;-79
2023/02/21 18:22:54;;;;;;;4.80;4.40;;;11.30;94.00;;;;;;10424584;28;20214;-79
2023/02/21 18:27:58;;;;;;;7.30;5.40;;;11.20;94.00;;;;;;10483192;28;20239;-79
2023/02/21 18:33:00;;;;;;;5.33;4.40;;;11.10;94.30;;;;;;10488769;28;20240;-79
2023/02/21 18:38:02;;;;;;;7.00;4.90;;;11.10;94.30;;;;;;10507064;28;20204;-79
2023/02/21 18:43:06;;;;;;;7.70;6.27;;;11.00;94.40;;;;;;10492765;28;20225;-79
2023/02/21 18:48:08;;;;;;;5.47;4.97;;;10.90;94.40;;;;;;10469809;28;20194;-80
2023/02/21 18:53:10;;;;;;;7.17;5.30;;;10.90;94.40;;;;;;10466617;28;20293;-80
2023/02/21 18:58:14;;;;;;;8.50;7.50;;;10.90;94.40;;;;;;10454785;28;20222;-80
2023/02/21 19:03:16;;;;;;;8.90;8.00;;;10.90;94.50;;;;;;10523337;28;20715;-80
2023/02/21 19:08:20;;;;;;;10.67;7.17;;;10.80;94.40;;;;;;10484010;28;20186;-79
2023/02/21 19:13:23;;;;;;;12.53;9.70;;;10.70;94.50;;;;;;10508603;28;20227;-79
2023/02/21 19:18:25;;;;;;;8.83;7.20;;;10.70;94.70;;;;;;10533897;28;20568;-79
2023/02/21 19:23:28;;;;;;;10.07;8.60;;;10.60;94.90;;;;;;10470526;28;20238;-80
2023/02/21 19:28:31;;;;;;;9.67;7.20;;;10.60;94.80;;;;;;10453408;28;20641;-81
2023/02/21 19:33:33;;;;;;;10.33;6.40;;;10.50;94.90;;;;;;10453116;28;20616;-81
2023/02/21 19:38:35;;;;;;;7.47;6.60;;;10.50;94.90;;;;;;10457251;28;20252;-81
2023/02/21 19:43:39;;;;;;;8.80;7.07;;;10.40;95.10;;;;;;10451594;28;20230;-81
2023/02/21 19:48:41;;;;;;;6.73;6.13;;;10.40;95.10;;;;;;10429685;28;20734;-81
2023/02/21 19:53:43;;;;;;;7.37;6.60;;;10.40;95.10;;;;;;10438841;28;20267;-79
2023/02/21 19:58:46;;;;;;;7.77;7.00;;;10.30;95.20;;;;;;10446513;28;20194;-80
2023/02/21 20:03:49;;;;;;;8.53;6.73;;;10.30;95.30;;;;;;10444695;28;20229;-80
2023/02/21 20:08:51;;;;;;;7.80;7.00;;;10.20;95.30;;;;;;10463062;28;20213;-78
2023/02/21 20:13:54;;;;;;;10.47;7.90;;;10.20;95.40;;;;;;10428971;28;20312;-80
2023/02/21 20:18:57;;;;;;;9.43;8.13;;;10.10;95.50;;;;;;10444486;28;20207;-79
2023/02/21 20:24:00;;;;;;;8.60;7.70;;;10.10;95.80;;;;;;10488149;22;20730;-82
2023/02/21 20:29:04;;;;;;;11.90;8.17;;;10.10;95.60;;;;;;10441763;28;20802;-81
2023/02/21 20:34:06;;;;;;;9.50;8.37;;;10.00;95.80;;;;;;10418231;28;20221;-81
2023/02/21 20:39:18;;;;;;;10.77;7.43;;;9.90;96.30;;;;;;10474877;28;20675;-82
2023/02/21 20:44:22;;;;;;;9.77;8.77;;;9.90;96.50;;;;;;10500834;28;20240;-84
2023/02/21 20:49:24;;;;;;;8.67;7.80;;;9.90;96.50;;;;;;10500488;28;20563;-86
2023/02/21 20:54:26;;;;;;;10.20;7.80;;;9.80;96.60;;;;;;10494480;28;20218;-86
2023/02/21 20:59:31;;;;;;;24.67;13.60;;;9.80;96.80;;;;;;10463172;28;20196;-82
2023/02/21 21:04:37;;;;;;;10.47;8.37;;;9.80;96.90;;;;;;10469803;28;20319;-85
2023/02/21 21:09:39;;;;;;;9.27;7.90;;;9.70;96.70;;;;;;10495692;28;20224;-85
2023/02/21 21:15:09;;;;;;;20.20;14.83;;;9.60;97.00;;;;;;10499582;28;20211;-86
2023/02/21 21:20:14;;;;;;;13.93;9.80;;;9.60;97.20;;;;;;10445412;28;20268;-85
2023/02/21 21:25:21;;;;;;;12.60;11.30;;;9.60;97.10;;;;;;10444573;28;20229;-85
2023/02/21 21:30:26;;;;;;;16.70;12.30;;;9.60;96.90;;;;;;10492513;28;20229;-85
2023/02/21 21:35:29;;;;;;;12.10;10.90;;;9.60;97.10;;;;;;10499709;28;20305;-85
2023/02/21 21:40:31;;;;;;;10.70;9.50;;;9.60;97.50;;;;;;10446227;28;20196;-85
2023/02/21 21:45:42;;;;;;;12.23;8.93;;;9.40;97.70;;;;;;10502084;28;20343;-86
2023/02/21 21:50:45;;;;;;;8.83;7.93;;;9.30;97.40;;;;;;10444753;28;20201;-85
2023/02/21 21:55:47;;;;;;;13.00;10.20;;;9.30;97.40;;;;;;10455411;28;20278;-85
2023/02/21 22:00:50;;;;;;;11.50;10.30;;;9.30;97.80;;;;;;10506584;28;20588;-85
2023/02/21 22:05:54;;;;;;;10.97;9.43;;;9.30;97.70;;;;;;10433955;28;20223;-85
2023/02/21 22:10:58;;;;;;;10.60;9.67;;;9.40;97.50;;;;;;10444384;28;20639;-83
2023/02/21 22:16:02;;;;;;;11.10;9.33;;;9.30;97.50;;;;;;10474511;28;20229;-83
2023/02/21 22:21:07;;;;;;;10.57;9.30;;;9.30;97.70;;;;;;10483203;28;20218;-85
2023/02/21 22:26:17;;;;;;;11.73;8.57;;;9.30;97.60;;;;;;10459541;28;20226;-84
2023/02/21 22:31:22;;;;;;;13.00;9.20;;;9.30;97.70;;;;;;10440199;28;20359;-84
2023/02/21 22:36:24;;;;;;;14.27;8.67;;;9.20;97.80;;;;;;10464742;28;20236;-81
2023/02/21 22:41:30;;;;;;;14.97;9.30;;;9.10;97.90;;;;;;10457357;28;20685;-82
2023/02/21 22:46:41;;;;;;;10.90;9.80;;;9.10;98.20;;;;;;10454621;28;20221;-83
2023/02/21 22:51:43;;;;;;;11.07;9.17;;;9.10;98.40;;;;;;10437244;28;20209;-87
2023/02/21 22:56:50;;;;;;;9.37;8.47;;;9.20;98.40;;;;;;10436706;28;20239;-84
2023/02/21 23:01:54;;;;;;;10.40;8.17;;;9.30;98.10;;;;;;10475537;28;20199;-83
2023/02/21 23:06:58;;;;;;;6.77;6.07;;;9.30;98.00;;;;;;10460439;28;20660;-86
2023/02/21 23:12:00;;;;;;;8.40;5.90;;;9.30;97.70;;;;;;10526850;28;20196;-83
2023/02/21 23:17:04;;;;;;;5.30;4.30;;;9.20;97.90;;;;;;10457817;28;20325;-85
2023/02/21 23:22:08;;;;;;;6.17;5.67;;;9.20;97.70;;;;;;10492760;28;20199;-84
2023/02/21 23:27:10;;;;;;;6.83;5.27;;;9.20;97.60;;;;;;10462483;28;20289;-85
2023/02/21 23:32:14;;;;;;;6.90;4.90;;;9.10;98.00;;;;;;10489768;28;20192;-85
2023/02/21 23:37:16;;;;;;;6.50;4.87;;;9.00;98.10;;;;;;10502178;28;20197;-84
2023/02/21 23:42:18;;;;;;;5.30;4.60;;;9.00;98.20;;;;;;10467826;28;20215;-86
2023/02/21 23:47:21;;;;;;;6.97;4.33;;;9.10;98.30;;;;;;10444764;28;20201;-82
2023/02/21 23:52:24;;;;;;;7.43;4.80;;;9.10;98.30;;;;;;10451908;28;20212;-84
2023/02/21 23:57:26;;;;;;;3.73;3.10;;;9.10;98.10;;;;;;10460024;28;20204;-82
